Mansfield, IL (61854)

1:57 AM CDT on April 26, 2015 (GMT -0500)
APRSWXNET | | Change Station
CLOSE
Current Station
Personal Weather Station
Location: Mahomet, IL
Elevation: 695 ft
Nearby Weather Stations

Elev 695 ft 40.19 °N, 88.40 °W | Updated 24 minutes ago

Overcast
Overcast
44 °F
Feels Like 38 °F
N
13
Wind Variable Wind from ENE
Gusts 19.0 mph

Today
High -- | Low -- °F
--% Chance of Precip.
Yesterday
High -- | Low -- °F
Precip. -- in
6:00 AM 7:43 PM
First Quarter, 53% visible
Pressure 29.81 in
Visibility 10.0 miles
Clouds Overcast 3600 ft
Windchill 38 °F
Dew Point 42 °F
Humidity 91%
Rainfall in
Snow Depth Not available.
UV 0 out of 12
Pollen 3.20 out of 12
Air Quality Not available.
Flu Activity Regional
METAR KCMI 260653Z AUTO 04011KT 10SM OVC036 07/04 A2980 RMK AO2 SLP094 T00720039

More Conditions Fewer Conditions

Pressure 29.81 in
Visibility 10.0 miles
Clouds Overcast 3600 ft
Windchill 38 °F
Dew Point 42 °F
Humidity 91%
Rainfall in
Snow Depth Not available.
UV 0 out of 12
Pollen 3.20 out of 12
Air Quality Not available.
Flu Activity Regional
METAR KCMI 260653Z AUTO 04011KT 10SM OVC036 07/04 A2980 RMK AO2 SLP094 T00720039

More Conditions Fewer Conditions

The full scope of the disaster following a powerful 7.8-magnitude earthquake in Nepal may not come into view for days, but global charities are already sending emergency aid. Click to see how you can help.

10-Day Weather Forecast

Almanac

Astronomy

Apr. 26, 2015 Rise Set
Actual Time
Civil Twilight
Nautical Twilight
Astronomical Twilight
Moon
Length of Visible Light
Length of Day
Tomorrow will be .
, % of the Moon is Illuminated

Today's Extremes

State Highs State Lows

Community

WunderPhotos

Upload Photos

1,816,947 photos uploaded!

WunderBlogs® & News

Nearby

Air Quality

  Air Quality AQ Index Pollutant
Not available.

Snow Depth

Station Depth Elevation

Earthquake Activity

City Distance Mag. Time & Date
Minimum magnitude displayed is 2.5.

Coastal Water Temperatures

Place Temperature

Stations

Nearby Weather Stations

Station Location Temp. Windchill Dew Point Humidity Wind Precip. Elev Updated Type